<?xml version="1.0" encoding="UTF-8" standalone="no" ?>
<gpx xmlns="http://www.topografix.com/GPX/1/1" xmlns:xsi="http://www.w3.org/2001/XMLSchema-instance" xsi:schemaLocation="http://www.topografix.com/GPX/1/1 http://www.topografix.com/GPX/1/1/gpx.xsd" version="1.1" creator="VisuGPX - https://www.visugpx.com">
  <metadata>
    <name>Morgat 7 km</name>
    <desc><![CDATA[Petite balade en famille sur la cote bretonne]]></desc>
  </metadata>
  <trk>
    <name><![CDATA[ACTIVE LOG162810]]></name>
    <trkseg>
      <trkpt lat="48.25852" lon="-4.62158">
        <ele>52.086</ele>
        <time>2009-05-01T14:28:09Z</time>
      </trkpt>
      <trkpt lat="48.2585" lon="-4.62158">
        <ele>51.664</ele>
        <time>2009-05-01T14:28:17Z</time>
      </trkpt>
      <trkpt lat="48.25835" lon="-4.62168">
        <ele>49.443</ele>
        <time>2009-05-01T14:28:31Z</time>
      </trkpt>
      <trkpt lat="48.25826" lon="-4.62175">
        <ele>46.558</ele>
        <time>2009-05-01T14:28:44Z</time>
      </trkpt>
      <trkpt lat="48.25823" lon="-4.62181">
        <ele>45.595</ele>
        <time>2009-05-01T14:28:48Z</time>
      </trkpt>
      <trkpt lat="48.25816" lon="-4.62198">
        <ele>46.93</ele>
        <time>2009-05-01T14:29:05Z</time>
      </trkpt>
      <trkpt lat="48.25809" lon="-4.62203">
        <ele>48.367</ele>
        <time>2009-05-01T14:29:13Z</time>
      </trkpt>
      <trkpt lat="48.25802" lon="-4.62214">
        <ele>48.421</ele>
        <time>2009-05-01T14:29:25Z</time>
      </trkpt>
      <trkpt lat="48.25797" lon="-4.62221">
        <ele>48.203</ele>
        <time>2009-05-01T14:29:31Z</time>
      </trkpt>
      <trkpt lat="48.25792" lon="-4.62227">
        <ele>50.488</ele>
        <time>2009-05-01T14:29:37Z</time>
      </trkpt>
      <trkpt lat="48.25782" lon="-4.62235">
        <ele>52.565</ele>
        <time>2009-05-01T14:29:50Z</time>
      </trkpt>
      <trkpt lat="48.25776" lon="-4.62239">
        <ele>55.359</ele>
        <time>2009-05-01T14:29:56Z</time>
      </trkpt>
      <trkpt lat="48.25772" lon="-4.62238">
        <ele>51.687</ele>
        <time>2009-05-01T14:30:09Z</time>
      </trkpt>
      <trkpt lat="48.25767" lon="-4.62238">
        <ele>52.604</ele>
        <time>2009-05-01T14:30:15Z</time>
      </trkpt>
      <trkpt lat="48.25756" lon="-4.62243">
        <ele>49.55</ele>
        <time>2009-05-01T14:30:30Z</time>
      </trkpt>
      <trkpt lat="48.25753" lon="-4.6225">
        <ele>46.149</ele>
        <time>2009-05-01T14:30:44Z</time>
      </trkpt>
      <trkpt lat="48.25743" lon="-4.62257">
        <ele>43.077</ele>
        <time>2009-05-01T14:31:02Z</time>
      </trkpt>
      <trkpt lat="48.2574" lon="-4.62258">
        <ele>43.43</ele>
        <time>2009-05-01T14:31:06Z</time>
      </trkpt>
      <trkpt lat="48.25737" lon="-4.6226">
        <ele>43.476</ele>
        <time>2009-05-01T14:31:09Z</time>
      </trkpt>
      <trkpt lat="48.25731" lon="-4.62271">
        <ele>46.492</ele>
        <time>2009-05-01T14:31:27Z</time>
      </trkpt>
      <trkpt lat="48.25725" lon="-4.62281">
        <ele>46.248</ele>
        <time>2009-05-01T14:31:45Z</time>
      </trkpt>
      <trkpt lat="48.25724" lon="-4.62281">
        <ele>46.189</ele>
        <time>2009-05-01T14:31:46Z</time>
      </trkpt>
      <trkpt lat="48.25711" lon="-4.62285">
        <ele>42.575</ele>
        <time>2009-05-01T14:32:02Z</time>
      </trkpt>
      <trkpt lat="48.2571" lon="-4.62296">
        <ele>41.873</ele>
        <time>2009-05-01T14:32:15Z</time>
      </trkpt>
      <trkpt lat="48.25706" lon="-4.62299">
        <ele>40.32</ele>
        <time>2009-05-01T14:32:24Z</time>
      </trkpt>
      <trkpt lat="48.25691" lon="-4.62302">
        <ele>40.712</ele>
        <time>2009-05-01T14:32:38Z</time>
      </trkpt>
      <trkpt lat="48.25679" lon="-4.62304">
        <ele>44.574</ele>
        <time>2009-05-01T14:32:52Z</time>
      </trkpt>
      <trkpt lat="48.25676" lon="-4.62307">
        <ele>45.944</ele>
        <time>2009-05-01T14:33:05Z</time>
      </trkpt>
      <trkpt lat="48.25677" lon="-4.62307">
        <ele>46.924</ele>
        <time>2009-05-01T14:33:26Z</time>
      </trkpt>
      <trkpt lat="48.25669" lon="-4.62311">
        <ele>53.959</ele>
        <time>2009-05-01T14:35:50Z</time>
      </trkpt>
      <trkpt lat="48.25667" lon="-4.62316">
        <ele>53.06</ele>
        <time>2009-05-01T14:36:02Z</time>
      </trkpt>
      <trkpt lat="48.25668" lon="-4.62314">
        <ele>53.329</ele>
        <time>2009-05-01T14:36:47Z</time>
      </trkpt>
      <trkpt lat="48.25669" lon="-4.62311">
        <ele>53.916</ele>
        <time>2009-05-01T14:36:49Z</time>
      </trkpt>
      <trkpt lat="48.25676" lon="-4.62307">
        <ele>53.945</ele>
        <time>2009-05-01T14:37:03Z</time>
      </trkpt>
      <trkpt lat="48.25671" lon="-4.6231">
        <ele>52.342</ele>
        <time>2009-05-01T14:37:19Z</time>
      </trkpt>
      <trkpt lat="48.25677" lon="-4.62306">
        <ele>51.469</ele>
        <time>2009-05-01T14:37:43Z</time>
      </trkpt>
      <trkpt lat="48.25684" lon="-4.62312">
        <ele>49.771</ele>
        <time>2009-05-01T14:37:55Z</time>
      </trkpt>
      <trkpt lat="48.25684" lon="-4.62315">
        <ele>49.816</ele>
        <time>2009-05-01T14:38:07Z</time>
      </trkpt>
      <trkpt lat="48.25685" lon="-4.62309">
        <ele>49.842</ele>
        <time>2009-05-01T14:38:13Z</time>
      </trkpt>
      <trkpt lat="48.25687" lon="-4.62299">
        <ele>53.255</ele>
        <time>2009-05-01T14:38:23Z</time>
      </trkpt>
      <trkpt lat="48.25699" lon="-4.62295">
        <ele>54.479</ele>
        <time>2009-05-01T14:38:37Z</time>
      </trkpt>
      <trkpt lat="48.25703" lon="-4.62289">
        <ele>52.251</ele>
        <time>2009-05-01T14:38:51Z</time>
      </trkpt>
      <trkpt lat="48.25708" lon="-4.62283">
        <ele>52.216</ele>
        <time>2009-05-01T14:39:05Z</time>
      </trkpt>
      <trkpt lat="48.25707" lon="-4.62275">
        <ele>51.808</ele>
        <time>2009-05-01T14:39:20Z</time>
      </trkpt>
      <trkpt lat="48.25703" lon="-4.62262">
        <ele>52.015</ele>
        <time>2009-05-01T14:39:29Z</time>
      </trkpt>
      <trkpt lat="48.25703" lon="-4.6226">
        <ele>51.559</ele>
        <time>2009-05-01T14:39:31Z</time>
      </trkpt>
      <trkpt lat="48.257" lon="-4.62247">
        <ele>51.744</ele>
        <time>2009-05-01T14:39:46Z</time>
      </trkpt>
      <trkpt lat="48.25699" lon="-4.62243">
        <ele>51.13</ele>
        <time>2009-05-01T14:39:52Z</time>
      </trkpt>
      <trkpt lat="48.25701" lon="-4.62246">
        <ele>49.646</ele>
        <time>2009-05-01T14:40:10Z</time>
      </trkpt>
      <trkpt lat="48.25695" lon="-4.62227">
        <ele>49.882</ele>
        <time>2009-05-01T14:40:21Z</time>
      </trkpt>
      <trkpt lat="48.25688" lon="-4.62205">
        <ele>52.044</ele>
        <time>2009-05-01T14:40:35Z</time>
      </trkpt>
      <trkpt lat="48.25673" lon="-4.62191">
        <ele>50.939</ele>
        <time>2009-05-01T14:40:50Z</time>
      </trkpt>
      <trkpt lat="48.25662" lon="-4.62186">
        <ele>50.085</ele>
        <time>2009-05-01T14:41:03Z</time>
      </trkpt>
      <trkpt lat="48.25654" lon="-4.62185">
        <ele>49.175</ele>
        <time>2009-05-01T14:41:26Z</time>
      </trkpt>
      <trkpt lat="48.25651" lon="-4.62186">
        <ele>49.923</ele>
        <time>2009-05-01T14:41:29Z</time>
      </trkpt>
      <trkpt lat="48.25642" lon="-4.62179">
        <ele>51.281</ele>
        <time>2009-05-01T14:41:47Z</time>
      </trkpt>
      <trkpt lat="48.25628" lon="-4.62172">
        <ele>53.151</ele>
        <time>2009-05-01T14:41:59Z</time>
      </trkpt>
      <trkpt lat="48.25618" lon="-4.62163">
        <ele>57.522</ele>
        <time>2009-05-01T14:42:14Z</time>
      </trkpt>
      <trkpt lat="48.25614" lon="-4.62163">
        <ele>58.074</ele>
        <time>2009-05-01T14:42:36Z</time>
      </trkpt>
      <trkpt lat="48.25612" lon="-4.62164">
        <ele>57.253</ele>
        <time>2009-05-01T14:42:38Z</time>
      </trkpt>
      <trkpt lat="48.25593" lon="-4.62165">
        <ele>53.794</ele>
        <time>2009-05-01T14:42:55Z</time>
      </trkpt>
      <trkpt lat="48.25583" lon="-4.62169">
        <ele>50.912</ele>
        <time>2009-05-01T14:43:11Z</time>
      </trkpt>
      <trkpt lat="48.2558" lon="-4.62172">
        <ele>50.373</ele>
        <time>2009-05-01T14:43:25Z</time>
      </trkpt>
      <trkpt lat="48.25578" lon="-4.62172">
        <ele>49.645</ele>
        <time>2009-05-01T14:43:41Z</time>
      </trkpt>
      <trkpt lat="48.25575" lon="-4.62171">
        <ele>49.512</ele>
        <time>2009-05-01T14:43:55Z</time>
      </trkpt>
      <trkpt lat="48.25574" lon="-4.6217">
        <ele>50.516</ele>
        <time>2009-05-01T14:44:09Z</time>
      </trkpt>
      <trkpt lat="48.25572" lon="-4.62165">
        <ele>50.827</ele>
        <time>2009-05-01T14:45:22Z</time>
      </trkpt>
      <trkpt lat="48.25567" lon="-4.62166">
        <ele>50.085</ele>
        <time>2009-05-01T14:45:43Z</time>
      </trkpt>
      <trkpt lat="48.25569" lon="-4.62169">
        <ele>50.569</ele>
        <time>2009-05-01T14:46:09Z</time>
      </trkpt>
      <trkpt lat="48.25572" lon="-4.62172">
        <ele>50.585</ele>
        <time>2009-05-01T14:46:32Z</time>
      </trkpt>
      <trkpt lat="48.25572" lon="-4.6217">
        <ele>50.855</ele>
        <time>2009-05-01T14:47:04Z</time>
      </trkpt>
      <trkpt lat="48.25571" lon="-4.62168">
        <ele>50.632</ele>
        <time>2009-05-01T14:47:59Z</time>
      </trkpt>
      <trkpt lat="48.25577" lon="-4.6216">
        <ele>53.319</ele>
        <time>2009-05-01T14:48:17Z</time>
      </trkpt>
      <trkpt lat="48.25582" lon="-4.62157">
        <ele>52.723</ele>
        <time>2009-05-01T14:48:34Z</time>
      </trkpt>
      <trkpt lat="48.25585" lon="-4.62155">
        <ele>52.748</ele>
        <time>2009-05-01T14:48:37Z</time>
      </trkpt>
      <trkpt lat="48.25593" lon="-4.62156">
        <ele>55.872</ele>
        <time>2009-05-01T14:48:51Z</time>
      </trkpt>
      <trkpt lat="48.25611" lon="-4.62149">
        <ele>56.947</ele>
        <time>2009-05-01T14:49:13Z</time>
      </trkpt>
      <trkpt lat="48.25616" lon="-4.62151">
        <ele>57.22</ele>
        <time>2009-05-01T14:49:30Z</time>
      </trkpt>
      <trkpt lat="48.25614" lon="-4.62158">
        <ele>57.657</ele>
        <time>2009-05-01T14:49:47Z</time>
      </trkpt>
      <trkpt lat="48.25611" lon="-4.62161">
        <ele>57.053</ele>
        <time>2009-05-01T14:50:01Z</time>
      </trkpt>
      <trkpt lat="48.25617" lon="-4.62162">
        <ele>56.856</ele>
        <time>2009-05-01T14:50:21Z</time>
      </trkpt>
      <trkpt lat="48.25618" lon="-4.62162">
        <ele>56.103</ele>
        <time>2009-05-01T14:50:23Z</time>
      </trkpt>
      <trkpt lat="48.25623" lon="-4.6216">
        <ele>55.965</ele>
        <time>2009-05-01T14:50:28Z</time>
      </trkpt>
      <trkpt lat="48.25634" lon="-4.62156">
        <ele>55.085</ele>
        <time>2009-05-01T14:50:42Z</time>
      </trkpt>
      <trkpt lat="48.25648" lon="-4.62153">
        <ele>54.296</ele>
        <time>2009-05-01T14:50:58Z</time>
      </trkpt>
      <trkpt lat="48.25661" lon="-4.62152">
        <ele>54.358</ele>
        <time>2009-05-01T14:51:12Z</time>
      </trkpt>
      <trkpt lat="48.25674" lon="-4.62148">
        <ele>50.633</ele>
        <time>2009-05-01T14:51:26Z</time>
      </trkpt>
      <trkpt lat="48.25688" lon="-4.62148">
        <ele>51.453</ele>
        <time>2009-05-01T14:51:41Z</time>
      </trkpt>
      <trkpt lat="48.25701" lon="-4.62144">
        <ele>50.376</ele>
        <time>2009-05-01T14:51:54Z</time>
      </trkpt>
      <trkpt lat="48.25707" lon="-4.62144">
        <ele>50.418</ele>
        <time>2009-05-01T14:52:00Z</time>
      </trkpt>
      <trkpt lat="48.2572" lon="-4.62143">
        <ele>50.976</ele>
        <time>2009-05-01T14:52:13Z</time>
      </trkpt>
      <trkpt lat="48.25729" lon="-4.62142">
        <ele>49.523</ele>
        <time>2009-05-01T14:52:23Z</time>
      </trkpt>
      <trkpt lat="48.25745" lon="-4.6214">
        <ele>51.088</ele>
        <time>2009-05-01T14:52:39Z</time>
      </trkpt>
      <trkpt lat="48.25759" lon="-4.62138">
        <ele>49.031</ele>
        <time>2009-05-01T14:52:53Z</time>
      </trkpt>
      <trkpt lat="48.25773" lon="-4.62139">
        <ele>52.166</ele>
        <time>2009-05-01T14:53:07Z</time>
      </trkpt>
      <trkpt lat="48.25784" lon="-4.62136">
        <ele>51.788</ele>
        <time>2009-05-01T14:53:19Z</time>
      </trkpt>
      <trkpt lat="48.25806" lon="-4.62132">
        <ele>48.31</ele>
        <time>2009-05-01T14:53:41Z</time>
      </trkpt>
      <trkpt lat="48.25822" lon="-4.62128">
        <ele>49.482</ele>
        <time>2009-05-01T14:53:56Z</time>
      </trkpt>
      <trkpt lat="48.25829" lon="-4.62133">
        <ele>51.666</ele>
        <time>2009-05-01T14:54:05Z</time>
      </trkpt>
      <trkpt lat="48.25837" lon="-4.6214">
        <ele>51.935</ele>
        <time>2009-05-01T14:54:14Z</time>
      </trkpt>
      <trkpt lat="48.25841" lon="-4.62141">
        <ele>50.99</ele>
        <time>2009-05-01T14:54:19Z</time>
      </trkpt>
      <trkpt lat="48.25845" lon="-4.62143">
        <ele>51.316</ele>
        <time>2009-05-01T14:54:24Z</time>
      </trkpt>
      <trkpt lat="48.25848" lon="-4.6215">
        <ele>52.2</ele>
        <time>2009-05-01T14:54:28Z</time>
      </trkpt>
      <trkpt lat="48.25855" lon="-4.62159">
        <ele>52.231</ele>
        <time>2009-05-01T14:54:40Z</time>
      </trkpt>
      <trkpt lat="48.25854" lon="-4.62158">
        <ele>52.293</ele>
        <time>2009-05-01T14:54:46Z</time>
      </trkpt>
    </trkseg>
  </trk>
</gpx>